createdAt,value
2023-04-16T00:01:44.554Z,6.78
2023-04-16T00:04:14.556Z,6.72
2023-04-16T00:06:43.199Z,6.61
2023-04-16T00:09:12.118Z,6.44
2023-04-16T00:11:40.911Z,6.26
2023-04-16T00:14:09.770Z,6.11
2023-04-16T00:16:38.707Z,6.01
2023-04-16T00:19:08.078Z,5.93
2023-04-16T00:21:39.966Z,5.92
2023-04-16T00:24:08.497Z,5.86
2023-04-16T00:26:37.359Z,5.78
2023-04-16T00:29:06.260Z,5.69
2023-04-16T00:31:35.814Z,5.58
2023-04-16T00:34:04.636Z,5.49
2023-04-16T00:36:33.197Z,5.42
2023-04-16T00:39:03.791Z,5.33
2023-04-16T00:41:32.676Z,5.28
2023-04-16T00:44:01.384Z,5.28
2023-04-16T00:46:30.244Z,5.30
2023-04-16T00:48:59.397Z,5.26
2023-04-16T00:51:28.001Z,5.16
2023-04-16T00:53:56.958Z,5.10
2023-04-16T00:56:26.879Z,5.03
2023-04-16T00:58:56.582Z,4.97
2023-04-16T01:01:25.630Z,4.89
2023-04-16T01:03:54.069Z,4.81
2023-04-16T01:06:22.780Z,4.74
2023-04-16T01:08:51.586Z,4.66
2023-04-16T01:11:21.097Z,4.64
2023-04-16T01:13:51.508Z,4.66
2023-04-16T01:16:20.388Z,4.71
2023-04-16T01:18:49.296Z,4.80
2023-04-16T01:21:19.599Z,4.88
2023-04-16T01:23:48.312Z,4.98
2023-04-16T01:26:16.751Z,5.08
2023-04-16T01:28:45.394Z,5.18
2023-04-16T01:31:14.476Z,5.27
2023-04-16T01:33:43.395Z,5.33
2023-04-16T01:36:11.858Z,5.39
2023-04-16T01:38:42.142Z,5.46
2023-04-16T01:41:10.541Z,5.51
2023-04-16T01:43:40.299Z,5.55
2023-04-16T01:46:19.408Z,5.60
2023-04-16T01:48:48.621Z,5.63
2023-04-16T01:51:17.458Z,5.67
2023-04-16T01:53:48.068Z,5.69
2023-04-16T01:56:16.795Z,5.72
2023-04-16T01:58:46.190Z,5.74
2023-04-16T02:01:15.222Z,5.77
2023-04-16T02:03:44.505Z,5.77
2023-04-16T02:06:13.480Z,5.76
2023-04-16T02:08:42.350Z,5.71
2023-04-16T02:11:14.710Z,5.65
2023-04-16T02:13:43.455Z,5.60
2023-04-16T02:16:12.305Z,5.50
2023-04-16T02:18:41.033Z,5.43
2023-04-16T02:21:09.813Z,5.34
2023-04-16T02:23:41.089Z,5.24
2023-04-16T02:26:09.933Z,5.13
2023-04-16T02:28:41.055Z,5.03
2023-04-16T02:31:09.753Z,4.91
2023-04-16T02:33:38.450Z,4.82
2023-04-16T02:36:07.608Z,4.75
2023-04-16T02:38:37.521Z,4.68
2023-04-16T02:41:06.552Z,4.57
2023-04-16T02:43:34.918Z,4.53
2023-04-16T02:46:04.978Z,4.46
2023-04-16T02:48:33.617Z,4.43
2023-04-16T02:51:02.521Z,4.36
2023-04-16T02:53:31.209Z,4.33
2023-04-16T02:55:59.666Z,4.31
2023-04-16T02:58:28.926Z,4.30
2023-04-16T03:00:57.744Z,4.29
2023-04-16T03:03:28.238Z,4.22
2023-04-16T03:05:56.691Z,4.17
2023-04-16T03:08:25.721Z,4.11
2023-04-16T03:10:54.609Z,4.06
2023-04-16T03:13:23.409Z,4.00
2023-04-16T03:15:52.296Z,3.97
2023-04-16T03:18:20.731Z,3.92
2023-04-16T03:20:55.445Z,3.85
2023-04-16T03:23:24.008Z,3.79
2023-04-16T03:25:52.499Z,3.73
2023-04-16T03:28:21.363Z,3.67
2023-04-16T03:30:53.753Z,3.60
2023-04-16T03:33:22.918Z,3.61
2023-04-16T03:35:58.359Z,3.59
2023-04-16T03:38:27.410Z,3.54
2023-04-16T03:40:55.955Z,3.47
2023-04-16T03:43:24.463Z,3.41
2023-04-16T03:45:53.308Z,3.41
2023-04-16T03:48:21.873Z,3.41
2023-04-16T03:50:50.514Z,3.46
2023-04-16T03:53:20.654Z,3.52
2023-04-16T03:55:51.333Z,3.51
2023-04-16T03:58:21.546Z,3.48
2023-04-16T04:00:49.894Z,3.45
2023-04-16T04:03:19.062Z,3.40
2023-04-16T04:05:47.622Z,3.37
2023-04-16T04:08:16.070Z,3.36
2023-04-16T04:10:46.969Z,3.39
2023-04-16T04:13:15.847Z,3.41
2023-04-16T04:15:45.395Z,3.41
2023-04-16T04:18:14.229Z,3.43
2023-04-16T04:20:43.337Z,3.43
2023-04-16T04:23:12.033Z,3.42
2023-04-16T04:25:40.806Z,3.41
2023-04-16T04:28:11.176Z,3.40
2023-04-16T04:30:39.777Z,3.39
2023-04-16T04:33:08.718Z,3.40
2023-04-16T04:35:37.457Z,3.44
2023-04-16T04:38:06.671Z,3.46
2023-04-16T04:40:35.447Z,3.50
2023-04-16T04:43:04.045Z,3.56
2023-04-16T04:45:34.195Z,3.59
2023-04-16T04:48:03.050Z,3.72
2023-04-16T04:50:31.836Z,3.80
2023-04-16T04:53:00.586Z,3.88
2023-04-16T04:55:29.354Z,3.93
2023-04-16T04:57:58.095Z,3.99
2023-04-16T05:00:26.625Z,4.11
2023-04-16T05:02:56.876Z,4.30
2023-04-16T05:05:25.825Z,4.42
2023-04-16T05:07:54.811Z,4.53
2023-04-16T05:10:23.780Z,4.59
2023-04-16T05:12:52.783Z,4.70
2023-04-16T05:15:21.660Z,4.82
2023-04-16T05:17:51.651Z,4.96
2023-04-16T05:20:22.822Z,5.14
2023-04-16T05:22:51.385Z,5.29
2023-04-16T05:25:20.397Z,5.45
2023-04-16T05:27:49.222Z,5.59
2023-04-16T05:30:18.279Z,5.71
2023-04-16T05:32:49.358Z,5.83
2023-04-16T05:35:18.497Z,5.95
2023-04-16T05:37:48.313Z,6.09
2023-04-16T05:40:17.345Z,6.21
2023-04-16T05:42:46.165Z,6.34
2023-04-16T05:45:14.596Z,6.44
2023-04-16T05:47:43.467Z,6.58
2023-04-16T05:50:18.292Z,6.72
2023-04-16T05:52:49.211Z,6.86
2023-04-16T05:55:17.968Z,7.04
2023-04-16T05:57:46.710Z,7.22
2023-04-16T06:00:16.018Z,7.40
2023-04-16T06:02:45.043Z,7.58
2023-04-16T06:05:13.809Z,7.76
2023-04-16T06:07:42.283Z,7.95
2023-04-16T06:10:12.829Z,8.12
2023-04-16T06:12:41.799Z,8.25
2023-04-16T06:15:11.368Z,8.38
2023-04-16T06:17:40.220Z,8.48
2023-04-16T06:20:10.503Z,8.59
2023-04-16T06:22:39.497Z,8.68
2023-04-16T06:25:09.115Z,8.77
2023-04-16T06:27:39.388Z,8.86
2023-04-16T06:30:13.467Z,8.98
2023-04-16T06:32:44.987Z,9.08
2023-04-16T06:35:14.157Z,9.19
2023-04-16T06:37:42.620Z,9.32
2023-04-16T06:40:12.185Z,9.43
2023-04-16T06:42:44.824Z,9.55
2023-04-16T06:45:15.116Z,9.70
2023-04-16T06:47:43.601Z,9.84
2023-04-16T06:50:12.683Z,9.99
2023-04-16T06:52:42.025Z,10.11
2023-04-16T06:55:11.523Z,10.24
2023-04-16T06:57:44.440Z,10.37
2023-04-16T07:00:13.526Z,10.47
2023-04-16T07:02:42.747Z,10.57
2023-04-16T07:05:11.626Z,10.69
2023-04-16T07:07:40.706Z,10.78
2023-04-16T07:10:10.295Z,10.89
2023-04-16T07:12:39.217Z,10.98
2023-04-16T07:15:12.358Z,11.09
2023-04-16T07:17:41.174Z,11.17
2023-04-16T07:20:11.557Z,11.32
2023-04-16T07:22:40.513Z,11.39
2023-04-16T07:25:10.381Z,11.50
2023-04-16T07:27:42.005Z,11.58
2023-04-16T07:30:12.906Z,11.63
2023-04-16T07:32:41.509Z,12.27
2023-04-16T07:35:11.433Z,11.77
2023-04-16T07:37:40.099Z,11.92
2023-04-16T07:40:11.155Z,11.96
2023-04-16T07:42:40.020Z,12.06
2023-04-16T07:45:10.551Z,12.17
2023-04-16T07:47:40.872Z,12.29
2023-04-16T07:50:10.695Z,12.37
2023-04-16T07:52:41.510Z,12.54
2023-04-16T07:55:11.254Z,12.66
2023-04-16T07:57:40.079Z,12.86
2023-04-16T08:00:10.286Z,12.95
2023-04-16T08:02:40.544Z,13.09
2023-04-16T08:05:09.579Z,13.15
2023-04-16T08:07:38.452Z,13.31
2023-04-16T08:10:08.437Z,13.39
2023-04-16T08:12:37.029Z,13.48
2023-04-16T08:15:06.148Z,13.58
2023-04-16T08:17:35.050Z,13.68
2023-04-16T08:20:06.504Z,13.83
2023-04-16T08:22:37.784Z,13.96
2023-04-16T08:25:07.291Z,14.09
2023-04-16T08:27:36.116Z,14.12
2023-04-16T08:30:04.996Z,14.26
2023-04-16T08:32:33.578Z,14.33
2023-04-16T08:35:02.357Z,14.38
2023-04-16T08:37:32.639Z,14.54
2023-04-16T08:40:04.539Z,14.68
2023-04-16T08:42:37.224Z,14.76
2023-04-16T08:45:09.816Z,14.85
2023-04-16T08:47:38.289Z,15.04
2023-04-16T08:50:08.507Z,15.24
2023-04-16T08:52:41.193Z,15.32
2023-04-16T08:55:14.215Z,15.63
2023-04-16T08:57:48.905Z,15.81
2023-04-16T09:00:18.160Z,16.03
2023-04-16T09:02:47.481Z,15.98
2023-04-16T09:05:19.087Z,16.09
2023-04-16T09:07:50.217Z,16.20
2023-04-16T09:10:18.872Z,16.22
2023-04-16T09:12:47.886Z,16.27
2023-04-16T09:15:16.656Z,16.32
2023-04-16T09:17:45.434Z,16.39
2023-04-16T09:20:14.476Z,16.54
2023-04-16T09:22:44.708Z,16.63
2023-04-16T09:25:14.781Z,16.66
2023-04-16T09:27:43.820Z,16.77
2023-04-16T09:30:36.848Z,16.82
2023-04-16T09:33:16.807Z,16.89
2023-04-16T09:35:49.306Z,16.89
2023-04-16T09:38:18.155Z,17.01
2023-04-16T09:40:48.611Z,17.03
2023-04-16T09:43:19.866Z,17.12
2023-04-16T09:45:52.475Z,17.21
2023-04-16T09:48:31.124Z,17.31
2023-04-16T09:51:00.021Z,17.43
2023-04-16T09:53:30.009Z,17.48
2023-04-16T09:56:00.976Z,17.54
2023-04-16T09:58:30.165Z,17.61
2023-04-16T10:01:03.293Z,17.60
2023-04-16T10:03:32.943Z,17.71
2023-04-16T10:06:03.136Z,17.83
2023-04-16T10:08:32.317Z,17.78
2023-04-16T10:11:03.837Z,17.79
2023-04-16T10:13:33.609Z,17.92
2023-04-16T10:16:02.791Z,18.01
2023-04-16T10:18:31.894Z,18.15
2023-04-16T10:21:01.943Z,18.14
2023-04-16T10:23:30.861Z,18.12
2023-04-16T10:26:01.929Z,18.16
2023-04-16T10:28:35.336Z,18.16
2023-04-16T10:31:06.400Z,18.16
2023-04-16T10:33:37.551Z,18.21
2023-04-16T10:36:10.683Z,18.29
2023-04-16T10:38:43.518Z,18.31
2023-04-16T10:41:12.625Z,18.29
2023-04-16T10:43:44.411Z,18.32
2023-04-16T10:46:23.194Z,18.32
2023-04-16T10:48:54.714Z,18.40
2023-04-16T10:51:29.453Z,18.42
2023-04-16T10:53:59.922Z,18.38
2023-04-16T10:56:30.558Z,18.33
2023-04-16T10:59:00.541Z,18.31
2023-04-16T11:01:34.033Z,18.32
2023-04-16T11:04:23.439Z,18.35
2023-04-16T11:07:03.388Z,18.47
2023-04-16T11:09:53.765Z,18.64
2023-04-16T11:12:24.028Z,18.66
2023-04-16T11:14:55.107Z,18.72
2023-04-16T11:17:24.141Z,18.93
2023-04-16T11:19:53.610Z,19.00
2023-04-16T11:22:22.502Z,18.97
2023-04-16T11:24:56.317Z,18.98
2023-04-16T11:27:25.174Z,19.16
2023-04-16T11:30:02.347Z,19.30
2023-04-16T11:32:33.143Z,19.43
2023-04-16T11:35:03.846Z,19.43
2023-04-16T11:37:36.331Z,19.64
2023-04-16T11:40:06.974Z,19.79
2023-04-16T11:42:37.308Z,19.83
2023-04-16T11:45:09.295Z,19.89
2023-04-16T11:47:46.739Z,19.90
2023-04-16T11:50:21.161Z,19.90
2023-04-16T11:52:50.789Z,19.82
2023-04-16T11:55:19.399Z,19.78
2023-04-16T11:57:48.599Z,19.95
2023-04-16T12:00:19.161Z,20.12
2023-04-16T12:02:54.399Z,20.15
2023-04-16T12:05:32.106Z,20.27
2023-04-16T12:08:02.716Z,20.43
2023-04-16T12:10:31.599Z,20.67
2023-04-16T12:13:12.656Z,20.78
2023-04-16T12:15:49.532Z,20.76
2023-04-16T12:18:20.379Z,20.84
2023-04-16T12:20:49.175Z,20.87
2023-04-16T12:23:32.344Z,21.02
2023-04-16T12:26:10.910Z,20.97
2023-04-16T12:28:41.767Z,20.85
2023-04-16T12:31:12.056Z,20.79
2023-04-16T12:33:40.619Z,20.61
2023-04-16T12:36:19.072Z,20.45
2023-04-16T12:38:47.888Z,20.32
2023-04-16T12:41:16.208Z,20.24
2023-04-16T12:43:44.632Z,20.22
2023-04-16T12:46:15.315Z,20.14
2023-04-16T12:48:44.037Z,20.32
2023-04-16T12:51:12.925Z,20.38
2023-04-16T12:53:41.778Z,20.33
2023-04-16T12:56:10.633Z,20.25
2023-04-16T12:58:39.349Z,20.17
2023-04-16T13:01:08.365Z,20.22
2023-04-16T13:03:41.615Z,20.24
2023-04-16T13:06:10.291Z,20.24
2023-04-16T13:08:39.430Z,20.12
2023-04-16T13:11:08.219Z,20.19
2023-04-16T13:13:37.009Z,20.34
2023-04-16T13:16:08.451Z,20.59
2023-04-16T13:18:39.502Z,20.80
2023-04-16T13:21:08.377Z,21.15
2023-04-16T13:23:37.427Z,21.30
2023-04-16T13:26:06.364Z,21.36
2023-04-16T13:28:35.298Z,21.35
2023-04-16T13:31:05.698Z,21.36
2023-04-16T13:33:35.288Z,21.22
2023-04-16T13:36:06.344Z,21.23
2023-04-16T13:38:35.694Z,21.28
2023-04-16T13:41:04.768Z,21.40
2023-04-16T13:43:33.571Z,21.75
2023-04-16T13:46:02.144Z,21.74
2023-04-16T13:48:30.621Z,21.73
2023-04-16T13:50:59.561Z,21.77
2023-04-16T13:53:29.345Z,21.85
2023-04-16T13:55:57.898Z,21.82
2023-04-16T13:58:26.741Z,21.84
2023-04-16T14:00:56.148Z,21.96
2023-04-16T14:03:26.356Z,22.06
2023-04-16T14:05:55.142Z,21.84
2023-04-16T14:08:23.961Z,21.45
2023-04-16T14:10:55.810Z,21.18
2023-04-16T14:13:25.022Z,21.04
2023-04-16T14:15:55.781Z,21.02
2023-04-16T14:18:24.694Z,20.94
2023-04-16T14:20:53.635Z,20.81
2023-04-16T14:23:22.202Z,20.76
2023-04-16T14:25:50.733Z,20.70
2023-04-16T14:28:21.189Z,20.74
2023-04-16T14:30:49.910Z,20.66
2023-04-16T14:33:18.245Z,20.61
2023-04-16T14:35:46.941Z,20.58
2023-04-16T14:38:15.740Z,20.59
2023-04-16T14:40:44.605Z,20.51
2023-04-16T14:43:13.053Z,20.50
2023-04-16T14:45:43.638Z,20.46
2023-04-16T14:48:12.622Z,20.50
2023-04-16T14:50:44.011Z,20.43
2023-04-16T14:53:13.246Z,20.38
2023-04-16T14:55:42.477Z,20.44
2023-04-16T14:58:11.258Z,20.57
2023-04-16T15:00:40.058Z,20.64
2023-04-16T15:03:16.285Z,20.61
2023-04-16T15:05:45.122Z,20.56
2023-04-16T15:08:14.106Z,20.35
2023-04-16T15:10:43.363Z,20.45
2023-04-16T15:13:13.691Z,19.80
2023-04-16T15:15:42.419Z,19.62
2023-04-16T15:18:13.099Z,19.55
2023-04-16T15:20:43.347Z,19.50
2023-04-16T15:23:12.337Z,19.37
2023-04-16T15:25:41.530Z,19.26
2023-04-16T15:28:10.255Z,19.18
2023-04-16T15:30:40.475Z,19.07
2023-04-16T15:33:09.800Z,19.00
2023-04-16T15:35:41.442Z,18.92
2023-04-16T15:38:10.120Z,18.83
2023-04-16T15:40:38.575Z,18.74
2023-04-16T15:43:07.597Z,18.66
2023-04-16T15:45:39.206Z,18.62
2023-04-16T15:48:08.164Z,18.55
2023-04-16T15:50:36.720Z,18.50
2023-04-16T15:53:07.359Z,18.45
2023-04-16T15:55:36.705Z,18.35
2023-04-16T15:58:05.773Z,18.23
2023-04-16T16:00:37.268Z,18.10
2023-04-16T16:03:06.422Z,17.95
2023-04-16T16:05:35.154Z,17.82
2023-04-16T16:08:03.784Z,17.69
2023-04-16T16:10:34.034Z,17.60
2023-04-16T16:13:08.002Z,17.50
2023-04-16T16:15:36.937Z,17.43
2023-04-16T16:18:06.748Z,17.36
2023-04-16T16:20:36.709Z,17.29
2023-04-16T16:23:05.516Z,17.22
2023-04-16T16:25:35.577Z,17.15
2023-04-16T16:28:06.741Z,17.12
2023-04-16T16:30:35.607Z,17.07
2023-04-16T16:33:04.666Z,17.02
2023-04-16T16:35:33.309Z,16.98
2023-04-16T16:38:02.058Z,16.93
2023-04-16T16:40:30.622Z,16.86
2023-04-16T16:43:01.441Z,16.77
2023-04-16T16:45:30.782Z,16.69
2023-04-16T16:47:59.426Z,16.63
2023-04-16T16:50:28.152Z,16.57
2023-04-16T16:52:57.967Z,16.52
2023-04-16T16:55:26.812Z,16.48
2023-04-16T16:57:56.155Z,16.39
2023-04-16T17:00:26.738Z,16.32
2023-04-16T17:02:55.491Z,16.27
2023-04-16T17:05:25.182Z,16.18
2023-04-16T17:07:55.131Z,16.09
2023-04-16T17:10:24.415Z,16.02
2023-04-16T17:12:53.523Z,15.94
2023-04-16T17:15:22.323Z,15.87
2023-04-16T17:17:52.657Z,15.82
2023-04-16T17:20:21.510Z,15.73
2023-04-16T17:22:51.238Z,15.63
2023-04-16T17:25:20.445Z,15.55
2023-04-16T17:27:49.378Z,15.46
2023-04-16T17:30:18.093Z,15.39
2023-04-16T17:32:46.902Z,15.31
2023-04-16T17:35:17.248Z,15.24
2023-04-16T17:37:49.066Z,15.15
2023-04-16T17:40:18.559Z,15.07
2023-04-16T17:42:47.279Z,14.97
2023-04-16T17:45:16.117Z,14.92
2023-04-16T17:47:45.060Z,14.82
2023-04-16T17:50:14.082Z,14.75
2023-04-16T17:52:44.679Z,14.67
2023-04-16T17:55:13.728Z,14.57
2023-04-16T17:57:42.576Z,14.50
2023-04-16T18:00:14.508Z,14.41
2023-04-16T18:02:43.907Z,14.33
2023-04-16T18:05:12.862Z,14.24
2023-04-16T18:07:42.004Z,14.16
2023-04-16T18:10:12.640Z,14.10
2023-04-16T18:12:41.708Z,14.04
2023-04-16T18:15:11.527Z,13.99
2023-04-16T18:17:40.666Z,13.94
2023-04-16T18:20:12.636Z,13.89
2023-04-16T18:22:41.613Z,13.81
2023-04-16T18:25:12.135Z,13.76
2023-04-16T18:27:41.822Z,13.70
2023-04-16T18:30:19.959Z,13.64
2023-04-16T18:33:11.461Z,13.58
2023-04-16T18:35:41.469Z,13.53
2023-04-16T18:38:10.562Z,13.49
2023-04-16T18:40:41.733Z,13.44
2023-04-16T18:43:13.255Z,13.36
2023-04-16T18:45:42.922Z,13.33
2023-04-16T18:48:13.316Z,13.27
2023-04-16T18:50:41.660Z,13.22
2023-04-16T18:53:10.179Z,13.18
2023-04-16T18:55:38.607Z,13.11
2023-04-16T18:58:09.016Z,13.05
2023-04-16T19:00:37.943Z,13.00
2023-04-16T19:03:07.772Z,12.98
2023-04-16T19:05:36.544Z,12.97
2023-04-16T19:08:05.496Z,12.95
2023-04-16T19:10:34.207Z,12.96
2023-04-16T19:13:05.536Z,12.94
2023-04-16T19:15:36.446Z,12.88
2023-04-16T19:18:08.686Z,12.84
2023-04-16T19:20:45.516Z,12.80
2023-04-16T19:23:16.684Z,12.76
2023-04-16T19:25:46.437Z,12.72
2023-04-16T19:28:18.516Z,12.66
2023-04-16T19:30:54.518Z,12.66
2023-04-16T19:33:31.598Z,12.66
2023-04-16T19:36:04.104Z,12.70
2023-04-16T19:38:32.606Z,12.83
2023-04-16T19:41:06.313Z,12.97
2023-04-16T19:43:39.240Z,12.97
2023-04-16T19:46:09.548Z,12.90
2023-04-16T19:48:40.528Z,12.80
2023-04-16T19:51:11.263Z,12.71
2023-04-16T19:53:41.256Z,12.70
2023-04-16T19:56:10.089Z,12.82
2023-04-16T19:58:41.284Z,12.85
2023-04-16T20:01:32.861Z,12.97
2023-04-16T20:04:03.460Z,13.21
2023-04-16T20:06:32.490Z,13.62
2023-04-16T20:09:01.609Z,13.93
2023-04-16T20:11:31.906Z,14.12
2023-04-16T20:14:03.465Z,14.41
2023-04-16T20:16:38.958Z,14.75
2023-04-16T20:19:10.776Z,14.95
2023-04-16T20:21:43.369Z,15.14
2023-04-16T20:24:15.573Z,15.23
2023-04-16T20:26:59.828Z,15.26
2023-04-16T20:29:28.724Z,15.26
2023-04-16T20:32:03.124Z,15.42
2023-04-16T20:34:31.775Z,15.54
2023-04-16T20:37:00.859Z,15.58
2023-04-16T20:39:42.641Z,15.59
2023-04-16T20:42:16.934Z,15.65
2023-04-16T20:44:51.670Z,15.71
2023-04-16T20:47:22.891Z,15.71
2023-04-16T20:49:53.053Z,15.69
2023-04-16T20:52:24.634Z,15.70
2023-04-16T20:54:53.854Z,15.70
2023-04-16T20:57:22.630Z,15.71
2023-04-16T20:59:51.530Z,15.71
2023-04-16T21:02:23.907Z,15.73
2023-04-16T21:04:55.742Z,15.72
2023-04-16T21:07:24.634Z,15.69
2023-04-16T21:09:53.434Z,15.69
2023-04-16T21:12:22.168Z,15.65
2023-04-16T21:14:51.040Z,15.60
2023-04-16T21:17:19.765Z,15.59
2023-04-16T21:19:50.171Z,15.61
2023-04-16T21:22:18.849Z,15.62
2023-04-16T21:24:47.265Z,15.64
2023-04-16T21:27:15.803Z,15.62
2023-04-16T21:29:44.529Z,15.64
2023-04-16T21:32:13.350Z,15.61
2023-04-16T21:34:41.681Z,15.60
2023-04-16T21:37:11.641Z,15.59
2023-04-16T21:39:40.668Z,15.56
2023-04-16T21:42:09.486Z,15.52
2023-04-16T21:44:37.814Z,15.43
2023-04-16T21:47:06.701Z,15.39
2023-04-16T21:49:35.675Z,15.32
2023-04-16T21:52:04.173Z,15.32
2023-04-16T21:54:34.521Z,15.30
2023-04-16T21:57:03.397Z,15.24
2023-04-16T21:59:32.412Z,15.17
2023-04-16T22:02:01.311Z,15.13
2023-04-16T22:04:37.275Z,15.12
2023-04-16T22:07:06.019Z,15.09
2023-04-16T22:09:36.280Z,15.03
2023-04-16T22:12:07.005Z,15.09
2023-04-16T22:14:36.328Z,15.09
2023-04-16T22:17:04.970Z,15.06
2023-04-16T22:19:34.895Z,15.04
2023-04-16T22:22:03.576Z,15.11
2023-04-16T22:24:33.675Z,15.14
2023-04-16T22:27:04.347Z,15.14
2023-04-16T22:29:33.581Z,15.15
2023-04-16T22:32:02.389Z,15.18
2023-04-16T22:34:31.120Z,15.17
2023-04-16T22:37:01.454Z,15.22
2023-04-16T22:39:30.888Z,15.21
2023-04-16T22:41:59.846Z,15.25
2023-04-16T22:44:30.317Z,15.28
2023-04-16T22:46:59.341Z,15.26
2023-04-16T22:49:33.123Z,15.30
2023-04-16T22:52:03.009Z,15.37
2023-04-16T22:54:31.968Z,15.38
2023-04-16T22:57:01.108Z,15.42
2023-04-16T22:59:31.674Z,15.39
2023-04-16T23:02:00.249Z,15.36
2023-04-16T23:04:29.035Z,15.40
2023-04-16T23:06:57.801Z,15.47
2023-04-16T23:09:26.246Z,15.43
2023-04-16T23:11:55.034Z,15.36
2023-04-16T23:14:24.157Z,15.35
2023-04-16T23:16:54.348Z,15.32
2023-04-16T23:19:22.815Z,15.31
2023-04-16T23:21:51.856Z,15.30
2023-04-16T23:24:20.485Z,15.27
2023-04-16T23:26:52.515Z,15.26
2023-04-16T23:29:21.591Z,15.28
2023-04-16T23:31:50.208Z,15.31
2023-04-16T23:34:21.114Z,15.35
2023-04-16T23:36:50.149Z,15.37
2023-04-16T23:39:19.219Z,15.41
2023-04-16T23:41:47.592Z,15.40
2023-04-16T23:44:16.530Z,15.38
2023-04-16T23:46:45.327Z,15.33
2023-04-16T23:49:13.856Z,15.32
2023-04-16T23:51:44.329Z,15.28
2023-04-16T23:54:13.016Z,15.25
2023-04-16T23:56:41.848Z,15.20
2023-04-16T23:59:11.141Z,15.15
